Date,TemperatureHighF,TemperatureAvgF,TemperatureLowF,DewpointHighF,DewpointAvgF,DewpointLowF,HumidityHigh,HumidityAvg,HumidityLow,PressureMaxIn,PressureMinIn,WindSpeedMaxMPH,WindSpeedAvgMPH,GustSpeedMaxMPH,PrecipitationSumIn
2014-1-1,45.1,37.9,31.6,20.3,19.2,16.8,62,48,32,30.39,30.22,0,0,3,0.00
2014-1-2,30.9,26.2,16.5,24.7,21.6,9.0,96,83,64,30.21,29.81,7,0,26,0.00
2014-1-3,16.1,10.3,6.7,8.3,-0.9,-3.7,71,60,50,30.64,29.91,5,0,27,0.00
2014-1-4,28.8,18.1,4.8,11.0,4.5,-2.0,80,56,42,30.60,30.36,0,0,0,0.00
2014-1-5,31.6,28.4,24.4,30.3,17.2,8.8,95,64,45,30.36,29.74,0,0,0,0.00
2014-1-6,43.9,20.1,-4.6,41.9,11.2,-19.9,98,68,45,30.27,29.59,0,0,1,0.05
2014-1-7,4.7,-1.3,-7.7,-9.1,-15.1,-20.5,64,51,44,30.63,30.26,0,0,0,0.00
2014-1-8,28.2,16.7,4.7,19.3,0.8,-9.4,70,50,39,30.71,30.59,0,0,0,0.00
2014-1-9,33.1,27.5,22.5,19.4,15.2,11.9,70,60,47,30.74,30.59,0,0,0,0.00
2014-1-10,34.0,28.4,26.3,28.9,23.4,16.8,89,82,66,30.60,30.47,0,0,0,0.01
2014-1-11,52.0,46.8,38.9,50.8,41.8,29.2,100,83,68,29.74,29.53,0,0,0,0.04
2014-1-12,41.9,37.1,34.0,30.9,25.6,18.7,74,64,39,30.21,29.73,0,0,0,0.04
2014-1-13,51.6,42.1,32.8,31.8,25.2,18.4,65,51,39,30.19,29.89,0,0,0,0.00
2014-1-14,46.1,43.4,39.3,40.0,33.5,25.7,84,68,57,30.00,29.81,0,0,0,0.00
2014-1-15,39.3,34.5,27.5,28.5,22.8,15.9,73,62,55,30.12,29.97,0,0,0,0.00
2014-1-16,32.7,27.2,20.6,16.4,12.2,8.5,64,53,43,30.15,29.99,0,0,0,0.00
2014-1-17,41.1,33.6,25.4,28.7,21.6,13.2,87,62,48,30.04,29.92,0,0,0,0.00
2014-1-18,25.3,16.4,12.4,14.8,5.3,1.1,73,61,52,30.16,29.99,0,0,0,0.00
2014-1-19,34.9,26.5,15.1,24.3,16.9,6.1,89,67,47,30.07,29.83,0,0,0,0.00
2014-1-20,41.2,36.7,32.9,24.8,21.2,15.3,69,54,42,30.00,29.76,0,0,1,0.00
2014-1-21,32.9,21.9,7.7,24.1,17.3,-2.0,92,83,64,30.11,29.89,0,0,0,0.00
2014-1-22,9.9,4.1,-3.3,-1.7,-8.7,-12.5,67,55,41,30.26,30.11,0,0,0,0.00
2014-1-23,13.3,7.9,2.8,4.0,-5.1,-99.9,78,60,47,30.65,30.23,0,-28,0,0.00
2014-1-24,17.7,8.4,-1.6,-6.1,-9.9,-14.9,65,45,23,30.74,30.12,7,1,21,0.03
2014-1-25,28.2,22.9,14.1,18.7,5.7,-13.1,85,50,20,30.11,29.56,17,6,40,0.00
2014-1-26,26.7,16.5,9.3,16.0,6.3,-6.9,86,66,30,29.99,29.81,14,4,34,0.00
2014-1-27,45.2,24.2,5.2,33.8,11.3,-12.0,83,58,39,30.38,29.71,17,8,36,0.02
2014-1-28,11.1,4.0,-3.3,-7.6,-13.3,-16.8,56,45,28,30.62,30.39,8,3,30,0.00
2014-1-29,14.4,6.9,-1.4,-7.1,-10.1,-14.2,61,46,34,30.52,30.40,14,8,32,0.00
2014-1-30,27.2,17.6,9.0,2.7,-5.0,-11.9,43,36,27,30.57,30.22,11,2,25,0.00
2014-1-31,44.2,35.6,23.3,16.8,8.3,-2.8,46,32,21,30.30,30.19,9,4,24,0.00
2014-2-1,47.4,38.1,30.4,22.9,18.3,11.8,57,45,34,30.33,30.06,5,2,10,0.00
2014-2-2,53.9,46.4,34.9,46.2,36.2,18.4,90,70,34,30.19,29.99,20,4,29,0.03
2014-2-3,34.7,30.9,27.3,32.7,28.9,21.0,98,92,77,30.45,30.13,9,3,18,0.05
2014-2-4,27.2,24.5,21.9,24.8,20.3,17.9,95,84,77,30.56,30.25,7,3,16,0.05
2014-2-5,36.9,27.8,21.8,30.9,23.1,13.2,97,83,67,30.30,29.84,30,10,60,0.36
2014-2-6,27.5,22.6,19.4,15.4,13.3,11.1,75,67,58,30.50,30.29,19,9,44,0.00
2014-2-7,27.8,22.2,18.1,14.5,12.4,9.6,72,66,54,30.50,30.39,15,8,29,0.00
2014-2-8,28.1,21.8,15.7,20.2,15.3,9.4,90,76,60,30.47,30.30,5,2,11,0.02
2014-2-9,29.3,23.5,20.6,27.0,20.2,14.7,95,88,69,30.31,30.09,18,4,37,0.00
2014-2-10,23.5,18.8,13.1,14.7,7.6,3.5,71,62,47,30.48,30.22,17,8,33,0.00
2014-2-11,13.5,10.8,8.6,3.9,2.3,0.8,72,68,65,30.57,30.46,9,4,15,0.00
2014-2-12,17.3,9.4,4.5,5.4,1.4,-1.0,78,70,58,30.65,30.53,5,2,10,0.00
2014-2-13,31.5,25.5,14.8,31.0,23.3,12.1,98,91,76,30.07,29.66,17,7,39,0.00
2014-2-14,41.2,34.2,27.3,24.1,20.2,13.5,75,57,38,29.84,29.62,27,13,56,0.19
2014-2-15,34.4,26.5,18.0,29.9,19.6,7.9,97,76,57,30.17,29.73,25,11,41,0.00
2014-2-16,26.7,21.2,17.3,22.5,10.9,6.9,89,65,49,30.40,30.14,29,8,42,0.00
2014-2-17,29.3,21.9,11.7,22.8,10.0,5.6,93,61,40,30.59,30.22,18,6,33,0.01
2014-2-18,46.2,38.0,24.5,26.3,20.2,11.4,94,54,26,30.22,30.06,35,12,65,0.01
2014-2-19,53.8,43.0,34.1,42.5,28.1,11.2,94,58,27,30.26,29.81,26,9,46,0.22
2014-2-20,49.2,41.0,32.1,39.3,29.0,24.4,78,63,42,30.32,29.98,5,2,11,0.00
2014-2-21,53.3,45.5,38.9,48.3,31.0,17.2,86,60,33,30.13,29.77,25,8,45,0.02
2014-2-22,52.5,44.0,36.5,20.6,14.7,9.7,44,31,24,30.18,30.09,22,8,43,0.00
2014-2-23,53.9,40.2,31.0,34.1,24.8,12.7,87,57,26,30.14,30.00,22,6,40,0.00
2014-2-24,32.5,27.2,22.4,23.1,11.2,4.6,70,52,39,30.29,30.07,22,16,46,0.00
2014-2-25,29.1,24.0,21.4,16.0,11.3,5.0,76,58,44,30.28,30.15,17,7,33,0.00
2014-2-26,25.3,20.9,16.7,16.1,6.9,-2.3,80,56,33,30.17,30.01,18,8,32,0.00
2014-2-27,25.7,17.6,6.3,5.9,1.2,-5.7,62,48,36,30.34,29.85,26,12,66,0.00
2014-2-28,25.4,13.1,1.3,-1.1,-5.0,-9.5,66,45,28,30.58,30.34,8,3,16,0.00
2014-3-1,43.3,26.9,13.5,26.6,8.7,-2.7,54,46,35,30.49,30.28,5,2,12,0.00
2014-3-2,45.7,38.3,24.1,36.0,29.7,21.3,98,73,49,30.28,30.13,8,3,21,0.06
2014-3-3,23.8,13.7,8.8,21.0,2.0,-8.0,89,61,38,30.58,30.17,15,6,24,0.00
2014-3-4,31.0,19.2,6.1,8.3,2.8,-3.6,70,50,34,30.61,30.35,6,3,15,0.05
2014-3-5,42.8,31.5,21.6,18.6,9.9,5.0,64,42,23,30.50,30.31,16,5,26,0.04
2014-3-6,31.8,24.2,16.9,15.8,10.6,4.7,70,56,43,30.66,30.47,14,7,21,0.00
2014-3-7,37.9,29.3,22.4,25.9,20.2,14.0,75,69,61,30.46,30.10,6,3,14,0.00
2014-3-8,55.7,46.5,33.7,33.6,30.3,26.0,75,54,34,30.09,29.99,20,8,40,0.00
2014-3-9,42.2,35.2,28.2,33.8,20.8,10.9,80,58,31,30.27,30.05,19,10,34,0.00
2014-3-10,61.5,48.4,36.3,30.5,26.1,21.1,58,43,27,30.13,29.75,20,10,38,0.00
2014-3-11,70.4,58.2,50.5,37.9,33.9,30.0,55,41,26,29.82,29.68,20,9,43,0.00
2014-3-12,61.0,47.6,23.2,52.7,34.1,13.5,84,61,36,29.73,29.13,32,10,63,0.11
2014-3-13,25.7,18.0,8.1,15.3,2.3,-4.2,79,51,35,30.34,29.70,29,15,55,0.00
2014-3-14,60.5,43.4,23.2,26.3,14.6,1.4,44,32,25,30.31,29.91,11,4,29,0.00
2014-3-15,54.7,47.9,40.2,37.3,22.9,16.2,81,40,23,30.18,29.90,30,16,55,0.01
2014-3-16,40.5,30.8,21.4,26.2,21.6,16.2,94,71,46,30.30,30.19,11,4,16,0.00
2014-3-17,25.8,22.2,18.6,21.6,19.4,16.4,92,89,83,30.21,30.13,9,5,20,0.05
2014-3-18,33.5,27.6,22.9,26.6,22.1,20.1,93,81,60,30.34,30.20,8,4,13,0.17
2014-3-19,54.5,38.7,31.9,42.9,31.3,22.1,99,75,60,30.31,29.91,11,3,19,0.10
2014-3-20,47.0,41.7,37.2,40.5,26.0,20.4,83,55,36,30.12,29.91,24,16,43,0.00
2014-3-21,58.0,43.6,35.8,34.1,31.9,27.3,83,65,31,30.17,30.07,19,9,36,0.00
2014-3-22,59.9,50.8,39.5,32.7,27.5,21.4,73,43,24,30.15,29.89,23,10,49,0.00
2014-3-23,39.1,33.1,21.8,28.8,19.7,6.0,70,58,43,30.37,30.14,21,12,35,0.00
2014-3-24,34.9,23.7,13.6,6.7,3.1,-0.9,65,44,22,30.47,30.26,15,7,31,0.00
2014-3-25,32.9,27.1,22.1,26.0,17.1,0.9,90,69,30,30.26,29.99,21,4,29,0.02
2014-3-26,27.0,21.9,17.2,16.6,7.7,2.6,82,55,41,30.46,30.08,23,14,40,0.00
2014-3-27,52.2,35.5,22.1,17.1,11.0,3.8,53,37,23,30.51,30.18,9,4,21,0.00
2014-3-28,65.0,53.6,45.5,46.4,35.4,17.0,73,51,31,30.18,30.01,13,6,32,0.01
2014-3-29,54.4,44.5,41.5,43.4,40.5,37.5,99,86,63,30.19,29.75,6,3,17,0.61
2014-3-30,43.1,36.2,30.4,41.9,30.0,20.3,99,80,52,30.14,29.77,30,18,52,0.20
2014-3-31,58.9,45.0,32.4,24.6,20.1,15.4,59,39,24,30.28,30.14,29,15,47,0.00
2014-4-1,74.0,54.2,39.5,33.9,25.8,17.1,54,35,18,30.24,29.99,16,5,38,0.00
2014-4-2,67.4,58.9,51.6,44.5,34.9,18.3,73,42,19,30.21,30.06,21,8,33,0.02
2014-4-3,57.3,52.0,47.7,48.3,45.3,40.9,96,78,64,30.19,29.98,6,3,13,0.08
2014-4-4,54.8,46.7,43.9,52.2,45.6,43.6,100,96,74,30.00,29.78,13,3,25,0.13
2014-4-5,54.7,41.4,36.0,45.5,27.7,23.7,71,58,46,30.33,29.83,21,12,40,0.01
2014-4-6,56.5,43.3,30.7,26.4,21.0,16.5,70,44,21,30.38,30.21,10,4,18,0.00
2014-4-7,45.5,38.9,35.0,37.3,31.3,18.1,100,80,34,30.22,29.69,10,3,16,0.21
2014-4-8,55.0,45.9,37.3,50.2,37.2,32.4,100,73,45,29.84,29.57,25,8,48,0.00
2014-4-9,58.1,48.2,37.9,32.6,26.2,21.8,68,43,26,30.18,29.83,22,10,39,0.00
2014-4-10,69.9,55.8,42.6,33.0,27.4,23.7,49,35,20,30.28,30.02,8,4,18,0.00
2014-4-11,72.3,61.5,53.8,50.6,38.8,27.9,84,47,26,30.14,30.02,23,10,40,0.03
2014-4-12,71.8,60.8,46.5,48.7,40.8,25.0,90,53,22,30.34,30.12,10,4,26,0.00
2014-4-13,82.6,71.2,60.7,48.9,44.2,35.3,57,40,19,30.16,29.97,12,6,32,0.00
2014-4-14,70.6,66.3,63.2,53.3,50.6,48.5,70,57,46,29.96,29.80,12,6,22,0.00
2014-4-15,62.6,45.1,26.4,57.5,39.3,14.8,98,80,59,30.25,29.59,30,12,50,0.09
2014-4-16,43.5,33.0,24.2,16.8,12.0,6.6,72,45,23,30.61,30.25,18,8,40,0.00
2014-4-17,54.4,42.1,30.1,25.2,19.1,11.8,52,40,27,30.72,30.57,12,6,20,0.00
2014-4-18,59.6,45.3,32.2,35.2,31.7,24.4,89,62,36,30.59,30.35,6,3,12,0.00
2014-4-19,63.4,53.5,41.5,38.3,30.9,18.1,74,45,21,30.43,30.33,7,4,14,0.00
2014-4-20,63.2,53.2,44.5,31.0,25.2,20.9,47,34,23,30.50,30.35,12,6,21,0.00
2014-4-21,79.9,57.4,41.9,37.8,32.0,28.1,64,42,16,30.34,29.94,9,3,15,0.00
2014-4-22,66.6,61.5,48.2,55.2,42.7,29.5,89,53,28,29.93,29.66,17,8,33,0.00
2014-4-23,49.6,44.2,39.5,36.8,30.0,27.0,67,57,48,30.18,29.83,28,16,44,0.00
2014-4-24,60.4,47.4,33.7,27.0,17.3,12.2,59,33,17,30.29,30.08,16,6,26,0.00
2014-4-25,65.2,53.4,44.3,55.7,35.7,15.8,98,57,23,30.08,29.77,20,4,38,0.34
2014-4-26,67.8,55.5,46.7,49.9,41.5,36.8,84,61,38,30.04,29.88,29,18,57,0.07
2014-4-27,65.0,52.5,39.8,40.0,32.3,24.5,75,49,25,30.19,30.04,11,4,25,0.00
2014-4-28,55.6,49.3,43.6,48.0,38.5,30.2,99,69,41,30.17,30.04,9,5,20,0.11
2014-4-29,47.1,44.7,42.9,47.0,44.7,42.9,100,100,99,30.28,30.06,13,8,21,0.08
2014-4-30,51.3,45.3,42.5,51.3,45.3,42.5,100,100,100,30.27,29.98,9,4,18,0.18
2014-5-1,64.8,57.2,48.6,54.2,45.7,33.2,100,69,38,29.99,29.84,24,10,44,0.01
2014-5-2,57.8,51.6,47.4,36.5,33.9,31.9,60,51,39,30.01,29.91,15,7,30,0.00
2014-5-3,64.5,56.1,46.2,39.1,35.4,31.8,67,46,32,29.98,29.83,18,8,37,0.00
2014-5-4,68.6,60.0,49.5,38.1,31.6,23.7,50,34,27,30.06,29.81,31,18,56,0.00
2014-5-5,55.4,47.3,37.9,39.7,30.9,25.7,76,54,33,30.19,30.02,16,3,32,0.02
2014-5-6,72.8,55.5,41.9,42.9,36.1,27.9,94,54,21,30.13,30.00,13,3,25,0.00
2014-5-7,60.9,53.7,43.8,51.4,41.9,29.2,96,67,32,30.34,30.13,14,4,38,0.27
2014-5-8,85.1,67.5,49.5,57.2,49.7,44.8,98,60,25,30.24,30.08,15,5,30,0.00
2014-5-9,84.1,75.1,65.5,57.5,51.0,39.9,68,45,23,30.13,29.94,13,4,28,0.00
2014-5-10,70.4,65.8,59.6,58.7,55.5,51.5,83,70,57,30.08,29.97,14,6,33,0.01
2014-5-11,79.9,66.9,55.4,52.2,45.6,35.4,87,52,24,30.23,30.07,13,6,23,0.00
2014-5-12,83.4,71.5,61.6,61.9,52.1,35.9,82,52,31,30.21,30.12,15,4,31,0.00
2014-5-13,85.7,71.6,62.4,65.8,61.9,58.6,90,73,44,30.20,30.10,11,3,23,0.02
2014-5-14,62.4,60.6,59.3,61.8,60.2,59.0,100,99,96,30.26,30.18,7,3,14,0.26
2014-5-15,66.6,61.9,59.8,64.7,61.0,59.3,100,97,78,30.19,30.06,8,4,18,0.01
2014-5-19,68.1,59.9,44.3,40.3,32.5,27.6,60,37,25,30.44,30.28,7,3,13,0.00
2014-5-20,72.0,60.2,48.6,47.4,39.8,29.1,72,48,29,30.32,30.09,6,3,11,0.00
2014-5-21,73.2,66.1,58.1,61.6,55.2,43.0,83,68,48,30.09,29.95,8,3,20,0.00
2014-5-22,75.4,68.5,59.6,62.4,56.7,43.4,86,67,42,30.07,29.89,17,9,38,0.00
2014-5-23,68.9,59.6,50.1,48.8,44.5,40.1,86,59,39,30.18,30.04,20,8,35,0.00
2014-5-24,71.8,58.9,47.6,49.1,45.0,42.9,87,62,38,30.28,30.16,12,6,24,0.00
2014-5-25,75.3,64.8,53.8,51.1,44.9,41.4,66,50,32,30.28,30.18,6,3,14,0.00
2014-5-26,82.4,69.7,56.7,55.6,47.2,41.3,63,47,24,30.24,30.07,13,5,25,0.00
2014-5-27,82.6,70.4,63.7,68.2,61.3,55.1,93,74,50,30.09,29.95,16,6,32,0.18
2014-5-28,81.4,69.6,64.8,65.4,61.4,58.1,88,76,50,30.09,29.95,14,7,30,0.03
2014-5-29,65.5,58.3,55.1,61.1,56.9,54.8,100,95,77,30.23,30.07,5,2,12,0.07
2014-5-30,69.8,60.2,53.9,59.9,54.4,48.5,100,84,48,30.27,30.19,5,2,12,0.02
2014-5-31,74.4,65.1,55.7,55.1,49.0,42.4,80,57,41,30.32,30.23,5,3,14,0.00
2014-6-1,74.7,63.9,52.0,55.9,49.9,41.9,78,61,45,30.41,30.27,6,3,16,0.00
2014-6-2,76.5,66.5,55.9,66.4,58.9,52.7,91,77,64,30.30,30.11,5,2,12,0.00
2014-6-3,80.9,71.7,65.3,65.5,62.2,59.5,93,73,51,30.11,29.93,11,5,22,0.01
2014-6-4,79.2,69.5,61.3,62.4,58.5,53.2,95,70,44,29.98,29.74,10,4,20,0.39
2014-6-5,70.9,63.0,56.6,60.9,53.5,46.7,99,74,45,30.00,29.67,20,7,33,0.31
2014-6-6,75.1,63.5,52.3,50.7,46.1,41.6,75,55,35,30.10,29.98,10,4,19,0.00
2014-6-7,76.5,66.5,54.7,56.5,51.0,46.1,78,59,35,30.15,30.02,4,2,11,0.00
2014-6-8,73.9,65.8,57.2,69.0,61.5,52.9,99,87,61,30.03,29.85,6,2,13,0.88
2014-6-9,73.2,66.5,63.1,64.9,62.0,59.9,99,86,68,30.00,29.92,10,4,22,0.00
2014-6-10,77.7,68.8,60.9,69.4,63.6,58.9,96,84,63,30.01,29.96,5,2,16,0.06
2014-6-11,77.7,67.8,62.1,71.3,65.2,60.9,97,92,74,30.05,29.92,11,2,26,0.51
2014-6-12,76.0,67.4,62.4,68.0,64.4,62.1,100,91,69,30.00,29.87,7,3,14,2.15
2014-6-13,79.0,68.6,62.9,66.8,62.8,57.4,100,84,54,29.92,29.82,23,4,24,0.00
2014-6-17,86.1,82.0,76.3,68.5,64.7,59.9,67,56,45,30.17,30.03,11,5,23,0.00
2014-6-18,87.0,79.3,74.2,69.4,65.4,60.2,74,63,48,30.12,30.01,18,7,36,0.00
2014-6-19,77.7,71.3,65.0,69.8,64.5,58.8,96,80,60,30.15,29.99,15,5,27,0.03
2014-6-20,76.8,69.0,63.2,66.5,63.7,59.5,100,84,62,30.16,29.99,4,2,10,0.03
2014-6-21,66.0,61.8,59.5,65.0,61.2,58.7,100,98,92,30.05,29.95,4,2,9,0.30
2014-6-22,73.3,65.2,59.5,62.2,60.1,58.3,100,85,61,30.08,30.01,4,2,10,0.30
2014-6-23,75.8,67.9,58.6,66.4,62.7,57.8,99,84,70,30.15,30.07,6,3,14,0.00
2014-6-24,81.6,70.9,63.9,72.4,65.8,61.5,98,85,66,30.15,30.02,5,2,10,0.12
2014-6-25,80.3,72.4,66.8,74.2,67.3,64.8,94,84,68,30.03,29.90,11,3,20,0.49
2014-6-26,78.6,72.5,66.3,65.9,61.7,59.2,92,70,52,30.10,29.97,13,7,23,0.00
2014-6-27,81.4,68.7,61.5,66.0,56.4,-99.9,94,72,47,30.23,30.10,4,-32,11,0.00
2014-6-28,78.6,70.6,64.8,69.1,66.6,63.9,99,88,68,30.31,30.22,5,2,12,0.11
2014-6-29,76.0,70.1,65.6,70.1,65.3,60.9,99,85,71,30.28,30.16,5,2,13,0.02
2014-6-30,81.4,72.5,64.5,71.3,66.4,61.1,93,82,61,30.16,29.99,5,2,13,0.02
2014-7-1,87.4,77.7,68.4,72.4,68.5,64.7,90,74,57,30.01,29.87,9,3,19,0.00
2014-7-2,85.1,79.1,73.7,72.0,67.3,63.8,77,68,57,29.99,29.87,13,4,24,0.00
2014-7-3,82.0,72.5,67.3,72.4,65.7,55.0,96,80,62,30.08,29.96,11,4,21,0.41
2014-7-4,71.1,64.6,58.9,56.5,50.3,44.4,86,61,43,30.33,30.08,19,10,33,0.41
2014-7-5,74.9,65.2,52.8,52.4,47.0,43.3,74,54,35,30.40,30.23,8,3,18,0.00
2014-7-6,81.2,69.3,58.0,61.2,53.8,45.0,78,59,38,30.24,30.02,10,3,22,0.00
2014-7-7,86.1,77.2,70.6,64.6,59.4,55.3,63,55,42,30.02,29.85,12,5,32,0.00
2014-7-8,86.7,77.9,72.8,67.4,61.8,58.4,74,58,43,29.92,29.75,8,4,20,0.00
2014-7-31,79.4,69.4,60.1,58.2,55.3,51.7,79,62,41,30.19,30.14,9,3,18,0.00
2014-8-1,72.1,65.8,59.5,63.6,59.5,56.3,92,80,70,30.26,30.18,5,2,11,0.00
2014-8-2,76.8,68.2,59.2,62.7,60.1,56.6,98,77,55,30.23,30.12,6,2,12,0.00
2014-8-3,79.9,69.2,60.5,63.3,60.0,55.9,99,74,47,30.17,30.09,14,5,23,0.00
2014-8-4,82.8,71.4,59.6,62.4,58.0,51.1,95,66,36,30.22,30.12,7,2,14,0.00
2014-8-5,83.2,70.1,59.9,64.1,60.3,56.7,97,74,43,30.16,30.03,10,2,22,0.16
2014-8-6,73.7,67.3,61.6,68.6,62.2,57.2,93,84,73,30.06,29.99,10,3,19,0.16
2014-8-7,78.1,68.4,59.6,59.9,55.3,46.7,95,66,34,30.15,30.05,7,3,15,0.16
2014-8-8,77.4,68.1,56.0,61.9,58.1,53.5,93,72,54,30.24,30.12,5,2,10,0.00
2014-8-9,79.2,68.5,60.5,63.2,60.2,57.6,92,76,54,30.20,30.12,5,2,12,0.00
2014-8-10,79.9,68.8,59.5,65.0,60.9,58.5,99,78,48,30.22,30.13,5,2,15,0.00
2014-8-11,67.3,62.4,57.5,63.0,60.2,56.7,100,93,74,30.18,30.08,6,2,15,0.65
2014-8-12,75.6,66.3,59.0,72.3,65.2,59.0,100,96,79,30.07,29.83,6,2,12,0.22
2014-8-13,69.3,64.2,61.0,64.4,57.2,51.5,97,79,62,30.05,29.88,21,9,45,0.24
2014-8-14,72.8,63.0,55.3,56.8,52.8,48.6,90,71,45,30.06,29.99,13,6,30,0.00
2014-8-15,71.8,61.2,49.4,50.1,45.8,41.8,79,59,35,30.14,30.07,12,5,22,0.00
2014-8-16,77.9,65.4,51.0,56.2,49.6,41.9,85,59,28,30.14,30.03,9,3,22,0.00
2014-8-17,78.8,70.5,66.8,65.1,62.1,54.6,88,75,57,30.04,29.97,11,5,23,0.00
2014-8-18,76.7,70.1,64.3,69.7,65.1,60.9,97,84,68,30.02,29.86,5,2,11,0.58
2014-8-19,77.7,69.8,65.2,70.9,67.3,64.9,99,92,70,29.97,29.87,5,2,17,0.61
2014-8-20,81.1,71.2,64.2,71.7,65.8,62.5,100,85,56,30.06,29.95,11,2,24,0.02
2014-8-21,78.8,71.2,66.8,68.9,65.8,62.8,96,84,63,30.13,30.03,9,4,24,0.02
2014-8-22,74.9,69.9,67.9,70.5,67.4,64.2,99,92,83,30.10,30.01,7,2,15,0.02
2014-8-23,74.2,67.3,63.7,73.5,67.0,63.6,100,99,88,30.16,30.01,8,2,15,0.06
2014-8-24,68.3,64.5,60.9,63.7,61.4,58.3,100,90,80,30.25,30.15,5,3,11,0.01
2014-8-25,73.9,64.1,55.4,66.2,58.2,55.1,100,83,57,30.31,30.22,5,2,11,0.01
2014-8-26,80.5,67.7,54.8,61.7,54.6,44.7,99,68,32,30.29,30.18,4,2,10,0.00
2014-8-27,84.3,72.3,58.7,69.6,62.9,53.9,96,73,58,30.17,30.01,9,4,18,0.02
2014-8-28,74.4,68.2,60.5,69.1,57.8,51.5,96,71,46,30.20,30.01,15,8,26,0.02
2014-8-29,76.3,64.0,52.0,59.6,54.8,50.6,96,74,52,30.30,30.18,6,3,12,0.00
2014-8-30,84.9,69.0,58.9,70.1,63.4,56.4,98,84,57,30.27,30.14,5,2,11,0.00
2014-8-31,81.2,72.8,68.4,71.2,66.7,64.0,99,82,61,30.17,30.06,10,3,22,0.02
2014-9-1,84.3,75.4,68.6,70.1,66.6,63.6,95,75,53,30.10,30.00,9,3,25,0.01
2014-9-2,86.7,76.8,72.1,69.4,66.4,63.4,81,71,49,30.05,29.96,9,5,25,0.01
2014-9-8,67.1,63.0,59.8,59.8,57.4,55.9,97,83,69,30.32,30.28,7,4,15,0.01
2014-9-9,69.6,62.6,58.4,62.4,59.3,56.0,98,89,75,30.30,30.17,5,3,11,0.01
2014-9-10,78.6,68.3,62.1,65.4,63.1,61.8,100,85,62,30.19,29.99,6,2,17,0.00
2014-9-11,76.8,69.6,60.9,68.6,63.8,55.0,96,82,68,30.13,29.90,12,5,23,0.04
2014-9-12,68.3,60.8,56.5,55.1,53.0,50.8,91,76,59,30.27,30.13,6,3,13,0.04
2014-9-13,62.9,56.9,50.1,58.1,51.9,46.7,100,84,63,30.39,30.17,12,5,26,0.05
2014-9-14,62.6,53.6,42.9,50.0,45.4,40.9,95,75,54,30.45,30.30,5,2,14,0.00
2014-9-15,68.1,57.5,46.7,53.7,50.8,46.2,99,80,56,30.35,30.11,5,2,11,0.00
2014-9-16,68.1,60.0,54.2,54.5,50.5,46.3,90,72,46,30.18,30.08,11,5,20,0.00
2014-9-17,67.9,57.8,46.2,51.6,48.8,45.4,97,74,50,30.19,30.04,5,2,11,0.00
2014-9-18,70.1,60.9,52.5,53.2,48.4,42.4,93,66,38,30.21,30.04,9,2,16,0.00
2014-9-19,64.0,57.8,49.5,54.3,49.4,43.1,88,74,62,30.35,30.22,6,3,12,0.00
2014-9-20,78.8,66.8,57.2,58.3,55.5,53.4,90,69,46,30.32,30.07,4,2,11,0.00
2014-9-21,80.5,68.6,60.1,62.8,56.9,45.7,85,67,45,30.08,29.72,17,5,33,0.00
2014-9-22,60.5,54.7,47.3,50.9,44.7,41.0,95,70,51,30.38,29.88,15,8,33,0.02
2014-9-23,67.3,54.1,41.2,43.0,40.0,35.6,95,63,32,30.49,30.36,5,2,12,0.00
2014-9-24,66.9,56.5,47.3,51.5,45.7,40.9,80,68,42,30.57,30.48,14,5,23,0.00
2014-9-25,64.0,58.7,54.7,58.4,55.0,50.8,96,87,78,30.49,30.36,5,2,15,0.00
2014-9-26,74.9,64.0,57.8,62.1,53.9,47.8,100,73,40,30.37,30.26,5,2,11,0.00
2014-9-27,74.9,62.9,50.1,53.0,49.3,44.8,96,64,37,30.36,30.27,6,3,13,0.00
2014-9-28,73.0,62.6,51.7,55.7,50.5,45.9,93,67,38,30.30,30.13,4,2,11,0.00
2014-9-29,72.1,65.0,59.8,58.6,55.3,52.2,82,71,58,30.12,29.99,7,2,13,0.00
2014-9-30,79.4,65.2,56.3,58.5,53.5,41.0,94,69,27,30.01,29.89,20,4,35,0.05
2014-10-1,67.3,59.8,55.1,59.6,57.3,55.1,100,92,71,30.16,30.00,6,2,12,0.01
2014-10-2,75.3,63.5,56.7,60.2,55.7,52.1,100,79,46,30.21,30.10,7,2,13,0.01
2014-10-3,73.3,63.4,55.4,61.6,57.7,54.3,100,83,60,30.13,29.73,7,3,19,0.04
2014-10-4,62.1,49.5,40.8,60.9,38.3,26.1,96,66,48,29.93,29.70,21,11,40,0.05
2014-10-5,56.6,46.8,39.2,32.5,29.5,27.3,71,52,33,30.07,29.93,13,7,28,0.00
2014-10-6,70.1,52.9,41.3,53.3,40.2,28.3,96,65,35,30.07,29.90,19,3,37,0.29
2014-10-7,63.5,55.2,49.9,54.5,49.3,45.4,98,81,60,30.10,29.92,6,3,26,0.36
2014-10-8,64.8,58.2,54.1,53.0,45.7,40.0,91,65,42,30.12,29.92,17,8,35,0.01
2014-10-9,62.9,55.1,49.4,46.1,40.0,34.7,75,58,38,30.21,30.11,16,6,33,0.00
2014-10-10,56.3,52.5,50.1,50.8,46.9,42.1,100,82,59,30.22,30.15,11,2,18,0.05
2014-10-11,51.4,49.6,47.4,51.4,49.2,41.2,100,99,75,30.30,30.10,8,2,14,0.01
2014-10-12,49.2,46.9,42.5,48.7,44.7,39.0,99,92,71,30.39,30.30,5,2,10,0.01
2014-10-13,66.3,55.2,48.2,60.7,54.1,47.9,100,97,79,30.34,30.23,4,1,10,0.07
2014-10-14,70.8,64.5,57.3,67.6,62.3,56.8,100,93,77,30.23,29.90,12,6,25,0.03
2014-10-15,69.4,57.4,51.4,61.9,55.7,51.1,100,95,70,29.96,29.83,17,4,35,0.65
2014-10-16,61.6,55.8,52.0,53.2,50.3,47.5,100,83,60,29.86,29.80,10,4,22,0.01
2014-10-17,70.1,59.4,52.2,50.9,48.0,42.3,94,69,38,29.92,29.73,11,5,29,0.01
2014-10-18,62.6,52.5,44.3,50.2,42.4,36.7,79,68,62,30.04,29.70,19,10,37,0.00
2014-10-19,53.2,45.2,38.9,38.9,32.6,29.0,87,63,41,30.24,30.03,18,10,33,0.00
2014-10-20,53.5,47.3,39.1,41.8,35.4,30.6,79,63,53,30.22,30.01,5,2,15,0.00
2014-10-21,55.7,50.6,46.2,49.3,45.1,41.3,98,82,65,30.07,29.95,15,6,27,0.27
2014-10-22,48.8,46.4,44.9,44.3,42.4,39.3,95,86,78,30.21,30.06,19,12,33,0.35
2014-10-23,54.7,48.2,43.9,44.1,41.1,39.1,88,77,64,30.19,30.09,22,12,38,0.00
2014-10-24,60.7,51.1,45.4,41.9,38.1,31.8,81,63,35,30.19,30.06,20,9,36,0.00
2014-10-25,65.6,57.0,48.3,50.4,42.0,36.3,71,58,44,30.10,29.77,23,11,51,0.00
2014-10-26,61.5,54.9,49.5,49.6,27.6,19.6,68,36,21,30.05,29.77,26,14,55,0.00
2014-10-27,72.1,60.1,49.5,30.3,26.7,23.2,39,29,19,30.15,30.05,12,4,19,0.00
2014-10-28,78.3,71.1,59.3,53.3,45.2,27.9,58,40,28,30.07,29.94,15,6,33,0.00
2014-10-29,66.3,53.5,47.7,55.0,43.9,35.7,92,71,49,30.11,29.96,20,8,34,0.10
2014-10-30,47.9,44.7,42.2,35.9,33.1,30.2,72,64,56,30.21,30.11,12,4,21,0.00
2014-10-31,47.9,43.0,39.8,39.8,33.6,29.3,96,70,55,30.16,29.95,5,2,11,0.04
2014-11-1,43.1,38.8,34.0,38.6,35.2,25.9,98,87,71,30.19,29.95,20,8,40,0.11
2014-11-2,41.8,36.1,32.2,26.0,22.5,18.5,73,58,42,30.46,30.18,28,17,46,0.00
2014-11-3,58.3,47.2,35.0,23.8,15.0,5.2,63,32,13,30.49,30.29,21,11,33,0.00
2014-11-4,70.8,61.8,54.5,26.5,15.8,9.6,26,17,10,30.31,30.14,13,6,41,0.00
2014-11-5,61.6,54.8,48.9,48.0,41.8,27.1,96,65,27,30.28,30.13,15,7,33,0.01
2014-11-6,59.9,49.5,41.9,54.8,43.7,35.6,100,83,41,30.19,29.78,22,6,38,0.02
2014-11-7,42.1,38.0,31.0,38.8,29.9,20.3,89,73,54,30.21,29.85,26,13,45,0.04
2014-11-8,48.5,39.3,27.9,30.9,25.0,20.4,73,57,35,30.20,29.99,8,3,19,0.00
2014-11-9,51.7,45.5,38.5,34.3,30.0,28.0,70,55,41,30.13,30.01,13,6,26,0.00
2014-11-10,60.2,48.9,36.2,38.3,32.7,27.1,73,54,36,30.25,30.11,6,3,13,0.00
2014-11-11,65.2,53.4,41.2,39.6,35.3,23.8,82,53,28,30.15,29.95,7,3,11,0.00
2014-11-12,59.2,45.4,32.8,46.9,32.0,23.0,83,62,28,30.28,29.93,22,10,37,0.00
2014-11-13,35.5,32.5,27.9,28.5,25.2,16.9,83,74,63,30.29,30.20,16,8,30,0.00
2014-11-14,30.3,25.8,23.2,18.3,14.0,10.9,75,61,47,30.48,30.27,17,10,30,0.00
2014-11-15,36.9,28.1,21.3,15.9,13.6,11.2,75,56,39,30.58,30.43,16,6,25,0.00
2014-11-16,39.8,34.1,27.9,33.0,19.0,12.3,96,56,39,30.44,30.08,6,2,13,0.01
2014-11-17,43.8,33.8,20.6,43.8,30.7,11.6,100,89,63,30.08,29.66,22,7,43,0.01
2014-11-18,19.7,16.3,12.8,11.5,3.7,-1.4,70,57,47,30.41,30.00,22,13,44,0.01
2014-11-19,40.5,24.4,12.8,19.2,7.4,2.9,75,50,33,30.49,30.06,10,5,26,0.00
2014-11-20,40.5,33.4,23.9,25.5,17.8,9.5,66,53,40,30.27,30.04,21,12,41,0.00
2014-11-21,29.0,23.5,19.5,13.0,6.8,4.4,66,49,37,30.67,30.28,21,10,44,0.00
2014-11-22,53.3,35.1,17.5,24.2,13.1,4.6,60,41,27,30.63,30.29,6,2,11,0.00
2014-11-23,58.3,50.8,42.9,49.3,32.5,18.4,99,53,29,30.29,29.75,10,4,23,0.24
2014-11-24,69.8,58.4,46.4,53.5,44.9,26.0,100,66,30,29.89,29.58,22,7,42,0.30
2014-11-25,51.7,44.2,39.2,37.8,28.1,23.6,65,53,35,30.27,29.90,18,6,33,0.00
2014-11-26,39.1,33.2,30.1,30.8,28.5,26.3,98,84,61,30.27,30.14,4,1,10,0.00
2014-11-27,34.1,30.7,26.6,29.3,25.8,20.1,92,82,72,30.34,30.12,19,7,32,0.03
2014-11-28,27.9,24.8,21.6,21.9,17.6,13.3,92,74,60,30.46,30.34,15,6,33,0.00
2014-11-29,33.8,28.7,21.8,24.1,19.0,14.1,80,67,60,30.39,30.20,4,2,7,0.01
2014-11-30,60.5,47.2,31.9,45.7,34.7,21.0,75,62,53,30.21,30.10,8,3,24,0.17
2014-12-1,59.9,50.0,32.8,54.2,42.7,27.2,89,76,60,30.58,30.17,23,7,37,0.00
2014-12-2,33.5,30.9,29.3,31.3,29.2,25.6,99,93,81,30.66,30.37,7,4,13,0.01
2014-12-3,52.0,38.8,31.0,50.4,34.5,23.6,100,86,66,30.44,30.16,19,6,39,0.00
2014-12-4,36.0,32.5,30.1,31.0,25.7,22.5,98,77,64,30.58,30.43,18,4,34,0.00
2014-12-5,35.2,33.3,31.3,35.2,33.1,30.3,100,99,98,30.57,30.39,3,1,6,0.04
2014-12-6,39.3,36.9,34.9,39.3,36.7,30.6,100,99,83,30.49,30.14,15,4,30,0.07
2014-12-7,40.8,33.8,28.5,30.1,19.8,14.4,83,58,40,30.69,30.49,12,5,31,0.07
2014-12-8,30.6,27.7,24.4,25.9,18.3,13.1,96,69,51,30.68,30.41,8,4,14,0.00
2014-12-9,43.8,33.9,26.9,40.1,30.2,25.9,100,87,64,30.40,30.07,18,4,28,0.22
2014-12-10,37.9,33.2,26.3,31.6,26.6,17.8,86,76,67,30.10,30.01,29,16,46,0.00
2014-12-11,30.0,26.3,24.8,18.8,16.8,15.0,73,67,54,30.09,30.00,27,16,57,0.00
2014-12-16,44.6,38.7,35.0,43.6,37.5,34.4,100,96,82,30.07,29.94,13,4,31,0.22
2014-12-17,41.5,36.1,28.8,37.0,28.7,19.2,87,74,64,30.24,30.05,18,10,40,0.01
2014-12-18,28.7,26.5,25.6,19.9,18.6,16.6,77,72,63,30.35,30.23,16,9,46,0.00
2014-12-19,28.5,26.7,25.6,20.9,19.7,18.8,77,74,71,30.42,30.27,16,9,32,0.00
2014-12-20,30.0,26.4,21.6,21.5,19.6,17.2,84,75,68,30.45,30.37,5,2,14,0.00
2014-12-21,37.0,30.3,26.6,25.2,22.3,20.1,78,72,61,30.48,30.38,5,2,12,0.00
2014-12-22,28.5,26.2,22.2,27.9,23.4,19.4,98,89,78,30.42,30.25,4,2,9,0.00
2014-12-23,34.3,31.3,28.2,34.3,31.1,27.7,100,99,98,30.25,30.15,4,1,6,0.02
2014-12-24,47.1,37.4,34.0,47.1,37.4,34.0,100,100,93,30.15,29.62,30,4,42,0.22
2014-12-25,45.5,38.7,35.2,40.6,30.4,26.7,84,72,64,30.37,29.74,24,12,43,0.01
2014-12-26,53.3,42.6,33.8,31.2,24.1,9.4,75,52,20,30.44,30.32,10,4,24,0.00
2014-12-27,57.6,50.8,39.2,26.1,18.9,9.8,47,28,21,30.39,30.11,7,2,15,0.00
2014-12-28,55.6,46.3,35.2,41.3,36.3,23.2,84,71,31,30.25,30.01,17,8,32,0.00
2014-12-29,37.9,33.8,27.8,30.7,25.0,19.9,84,70,57,30.42,30.24,9,3,18,0.00
2014-12-30,34.7,27.2,22.5,19.8,11.5,0.5,72,54,23,30.58,30.42,14,4,24,0.00
2014-12-31,27.0,22.5,17.3,13.9,6.9,0.5,67,52,37,30.60,30.35,16,9,35,0.00
2015-1-1,37.2,29.2,21.9,16.3,10.2,-3.6,53,45,31,30.35,30.17,20,10,44,0.00
2015-1-2,38.9,32.6,29.0,21.1,19.0,15.3,65,57,45,30.55,30.22,16,8,44,0.00